Time;durP1;ratioP1;P1;durP2;ratioP2;P2;SDS_P1;SDS_P2;PMS_P1;PMS_P2;Temp;Humidity;BMP_temperature;BMP_pressure;BME280_temperature;BME280_humidity;BME280_pressure;Samples;Min_cycle;Max_cycle;Signal;HPM_P1;HPM_P2
2022/07/15 00:01:58;;;;;;;1.60;0.77;;;14.70;99.90;;;;;;10357692;28;20191;-79
2022/07/15 00:07:20;;;;;;;2.45;0.80;;;14.60;99.90;;;;;;10358525;28;20231;-78
2022/07/15 00:12:42;;;;;;;2.60;0.90;;;14.40;99.90;;;;;;10331811;28;20452;-79
2022/07/15 00:18:04;;;;;;;2.10;0.65;;;14.40;99.90;;;;;;10329848;28;20194;-79
2022/07/15 00:23:26;;;;;;;4.75;0.82;;;14.30;99.90;;;;;;10315697;28;20227;-78
2022/07/15 00:28:47;;;;;;;2.17;0.98;;;14.20;99.90;;;;;;10315217;28;20315;-78
2022/07/15 00:34:09;;;;;;;2.55;0.60;;;14.20;99.90;;;;;;10315089;28;20201;-79
2022/07/15 00:39:31;;;;;;;2.17;0.80;;;14.20;99.90;;;;;;10311407;28;20203;-79
2022/07/15 00:44:52;;;;;;;1.27;0.70;;;14.10;99.90;;;;;;10290920;28;20228;-79
2022/07/15 00:50:16;;;;;;;1.95;0.70;;;13.60;99.90;;;;;;10274735;29;20250;-80
2022/07/15 00:55:41;;;;;;;0.70;0.70;;;13.70;99.90;;;;;;10303092;28;20203;-78
2022/07/15 01:01:03;;;;;;;2.40;1.00;;;14.00;99.90;;;;;;10354919;28;20252;-77
2022/07/15 01:06:27;;;;;;;1.95;0.80;;;14.00;99.90;;;;;;10340734;28;20215;-78
2022/07/15 01:11:48;;;;;;;2.85;1.35;;;14.00;99.90;;;;;;10310162;28;20206;-78
2022/07/15 01:17:11;;;;;;;1.27;0.80;;;14.00;99.90;;;;;;10327813;28;20197;-77
2022/07/15 01:22:35;;;;;;;2.75;0.98;;;13.90;99.90;;;;;;10313334;28;20236;-77
2022/07/15 01:27:57;;;;;;;1.17;0.80;;;13.90;99.90;;;;;;10314398;28;20250;-78
2022/07/15 01:33:20;;;;;;;2.45;0.77;;;13.90;99.90;;;;;;10334602;28;20210;-77
2022/07/15 01:38:42;;;;;;;1.52;0.82;;;13.90;99.90;;;;;;10320228;28;20201;-79
2022/07/15 01:44:11;;;;;;;1.83;0.75;;;13.90;99.90;;;;;;10335881;28;20194;-79
2022/07/15 01:49:35;;;;;;;1.25;0.70;;;13.80;99.90;;;;;;10318663;28;20437;-77
2022/07/15 01:55:08;;;;;;;3.35;0.93;;;13.80;99.90;;;;;;10331959;28;20196;-79
2022/07/15 02:00:30;;;;;;;2.25;0.65;;;13.80;99.90;;;;;;10318299;28;20283;-79
2022/07/15 02:05:52;;;;;;;1.60;0.70;;;13.50;99.90;;;;;;10303480;28;20240;-79
2022/07/15 02:11:21;;;;;;;2.08;0.57;;;13.70;99.90;;;;;;10312543;28;20222;-79
2022/07/15 02:16:43;;;;;;;1.50;0.68;;;13.80;99.90;;;;;;10306614;28;20222;-78
2022/07/15 02:22:09;;;;;;;1.70;0.70;;;13.70;99.90;;;;;;10320137;28;20194;-77
2022/07/15 02:27:31;;;;;;;1.42;0.60;;;13.70;99.90;;;;;;10319322;28;20244;-80
2022/07/15 02:32:53;;;;;;;3.42;0.60;;;13.70;99.90;;;;;;10299125;28;20198;-78
2022/07/15 02:38:15;;;;;;;2.38;0.75;;;13.60;99.90;;;;;;10295688;28;20233;-77
2022/07/15 02:43:37;;;;;;;1.95;0.77;;;13.60;99.90;;;;;;10292435;28;20384;-79
2022/07/15 02:49:02;;;;;;;1.35;0.80;;;;;;;;;;10292576;28;20223;-79
2022/07/15 02:54:25;;;;;;;1.95;0.85;;;;;;;;;;10273421;28;20376;-79
2022/07/15 02:59:47;;;;;;;1.77;0.90;;;;;;;;;;10313222;28;20245;-79
2022/07/15 03:05:11;;;;;;;2.97;0.85;;;;;;;;;;10318091;28;20206;-79
2022/07/15 03:10:36;;;;;;;1.83;0.80;;;;;;;;;;10326282;28;20277;-79
2022/07/15 03:15:58;;;;;;;4.00;1.00;;;;;;;;;;10291856;28;20500;-79
2022/07/15 03:21:21;;;;;;;4.83;1.67;;;;;;;;;;10305549;28;20396;-79
2022/07/15 03:26:44;;;;;;;4.07;1.20;;;;;;;;;;10316546;28;20305;-79
2022/07/15 03:32:10;;;;;;;2.67;1.07;;;;;;;;;;10331402;28;20198;-79
2022/07/15 03:37:32;;;;;;;1.35;0.75;;;;;;;;;;10309341;28;20218;-79
2022/07/15 03:42:54;;;;;;;1.97;0.83;;;;;;;;;;10277082;29;20280;-79
2022/07/15 03:48:16;;;;;;;2.60;1.10;;;;;;;;;;10263187;29;20378;-79
2022/07/15 03:53:38;;;;;;;3.90;1.20;;;;;;;;;;10263079;28;20200;-79
2022/07/15 03:59:01;;;;;;;2.60;1.10;;;;;;;;;;10309598;28;20374;-78
2022/07/15 04:04:22;;;;;;;1.48;1.00;;;13.40;99.90;;;;;;10276536;29;20271;-79
2022/07/15 04:09:45;;;;;;;1.85;1.00;;;13.30;99.90;;;;;;10303278;28;20570;-80
2022/07/15 04:15:07;;;;;;;2.05;1.00;;;15.00;99.90;;;;;;10323059;28;20228;-79
2022/07/15 04:20:28;;;;;;;3.10;0.90;;;13.80;99.90;;;;;;10331751;28;20227;-80
2022/07/15 04:25:53;;;;;;;3.20;0.88;;;13.70;99.90;;;;;;10315248;28;20300;-77
2022/07/15 04:31:15;;;;;;;1.50;0.70;;;13.80;99.90;;;;;;10293425;28;20226;-79
2022/07/15 04:36:45;;;;;;;2.72;1.10;;;13.80;99.90;;;;;;10274891;28;20721;-77
2022/07/15 04:42:06;;;;;;;4.68;1.17;;;13.60;99.90;;;;;;10288730;28;20262;-77
2022/07/15 04:47:30;;;;;;;1.87;0.73;;;13.70;99.90;;;;;;10275784;29;20228;-78
2022/07/15 04:52:54;;;;;;;4.97;1.02;;;13.90;99.90;;;;;;10288392;28;20203;-80
2022/07/15 04:58:17;;;;;;;2.90;0.82;;;14.00;99.90;;;;;;10319505;28;20262;-79
2022/07/15 05:03:41;;;;;;;2.63;0.90;;;14.00;99.90;;;;;;10321167;28;20246;-78
2022/07/15 05:09:03;;;;;;;3.10;0.93;;;14.20;99.90;;;;;;10313252;28;20241;-79
2022/07/15 05:14:28;;;;;;;3.75;1.20;;;14.30;99.90;;;;;;10326971;28;20208;-78
2022/07/15 05:19:53;;;;;;;3.80;1.35;;;14.50;99.90;;;;;;10299852;28;20294;-77
2022/07/15 05:25:17;;;;;;;5.85;0.98;;;14.50;99.90;;;;;;10313723;28;20197;-78
2022/07/15 05:30:39;;;;;;;4.20;0.90;;;14.70;99.90;;;;;;10327120;28;20247;-80
2022/07/15 05:36:04;;;;;;;7.10;1.33;;;14.90;99.90;;;;;;10329572;28;20242;-80
2022/07/15 05:41:25;;;;;;;3.85;1.58;;;14.90;99.90;;;;;;10326997;28;20506;-79
2022/07/15 05:46:47;;;;;;;5.18;1.00;;;15.00;99.90;;;;;;10329157;28;20258;-79
2022/07/15 05:52:09;;;;;;;6.65;1.45;;;15.10;99.90;;;;;;10318120;28;20240;-78
2022/07/15 05:57:32;;;;;;;2.65;1.00;;;14.60;99.30;;;;;;10331477;28;20519;-79
2022/07/15 06:02:54;;;;;;;4.00;1.02;;;15.20;95.50;;;;;;10369299;28;20198;-79
2022/07/15 06:08:19;;;;;;;8.13;1.98;;;15.40;68.80;;;;;;10336079;28;20231;-79
2022/07/15 06:13:40;;;;;;;3.65;1.05;;;15.40;51.80;;;;;;10308782;28;20562;-79
2022/07/15 06:19:05;;;;;;;3.33;1.17;;;15.40;72.10;;;;;;10275091;28;20196;-79
2022/07/15 06:24:27;;;;;;;4.38;0.90;;;15.40;16.10;;;;;;10332538;28;20377;-79
2022/07/15 06:29:49;;;;;;;3.42;1.23;;;15.60;42.60;;;;;;10335159;28;20248;-78
2022/07/15 06:35:11;;;;;;;7.43;1.77;;;15.80;1.00;;;;;;10321840;28;20277;-78
2022/07/15 06:40:33;;;;;;;6.22;1.30;;;;;;;;;;10332982;28;20363;-78
2022/07/15 06:45:55;;;;;;;7.65;2.42;;;;;;;;;;10281573;28;20200;-78
2022/07/15 06:51:20;;;;;;;3.65;1.20;;;;;;;;;;10278932;28;20263;-78
2022/07/15 06:56:42;;;;;;;6.10;1.80;;;16.60;1.00;;;;;;10336485;28;20197;-79
2022/07/15 07:02:03;;;;;;;7.88;1.70;;;;;;;;;;10359828;28;20202;-78
2022/07/15 07:07:25;;;;;;;9.35;2.33;;;17.60;99.90;;;;;;10358165;28;20305;-78
2022/07/15 07:12:47;;;;;;;6.45;1.65;;;17.70;99.90;;;;;;10333247;28;20790;-78
2022/07/15 07:18:09;;;;;;;4.22;1.13;;;18.00;99.90;;;;;;10285202;28;20255;-82
2022/07/15 07:23:31;;;;;;;5.50;1.33;;;17.80;1.00;;;;;;10306381;28;20212;-81
2022/07/15 07:28:53;;;;;;;8.85;1.67;;;17.10;1.00;;;;;;10312766;28;20243;-81
2022/07/15 07:34:14;;;;;;;6.07;1.50;;;16.60;1.00;;;;;;10331351;28;20205;-80
2022/07/15 07:39:36;;;;;;;7.43;1.65;;;15.90;1.00;;;;;;10286607;28;20224;-81
2022/07/15 07:44:59;;;;;;;3.65;1.38;;;15.70;1.00;;;;;;10322070;28;20212;-82
2022/07/15 07:50:21;;;;;;;6.25;1.70;;;15.50;1.00;;;;;;10313690;28;20227;-82
2022/07/15 07:55:43;;;;;;;3.50;0.88;;;15.40;1.00;;;;;;10311903;28;20546;-88
2022/07/15 08:01:05;;;;;;;5.45;1.20;;;15.30;1.00;;;;;;10314398;28;20225;-83
2022/07/15 08:06:26;;;;;;;4.38;1.40;;;15.40;13.00;;;;;;10314005;28;20208;-80
2022/07/15 08:11:48;;;;;;;2.95;0.93;;;15.20;27.90;;;;;;10318613;28;20222;-81
2022/07/15 08:17:10;;;;;;;4.47;1.25;;;15.00;64.50;;;;;;10313614;28;20198;-82
2022/07/15 08:22:32;;;;;;;3.95;1.27;;;14.90;93.60;;;;;;10303459;28;20210;-85
2022/07/15 08:27:55;;;;;;;3.42;1.08;;;14.90;99.90;;;;;;10300424;28;20247;-83
2022/07/15 08:33:17;;;;;;;3.60;1.30;;;15.20;91.80;;;;;;10257363;29;20297;-82
2022/07/15 08:38:39;;;;;;;8.52;1.42;;;15.30;30.00;;;;;;10286726;28;20238;-82
2022/07/15 08:44:00;;;;;;;3.45;1.45;;;15.60;25.30;;;;;;10285930;28;20554;-87
2022/07/15 08:49:23;;;;;;;3.53;1.40;;;15.80;14.80;;;;;;10280861;28;20240;-82
2022/07/15 08:54:45;;;;;;;6.20;1.40;;;16.10;1.00;;;;;;10294527;28;20490;-83
2022/07/15 09:00:10;;;;;;;7.68;1.70;;;16.40;1.00;;;;;;10349008;28;20307;-87
2022/07/15 09:05:34;;;;;;;5.97;1.35;;;17.00;1.00;;;;;;10339572;28;20527;-87
2022/07/15 09:10:58;;;;;;;8.93;1.40;;;18.50;1.00;;;;;;10354363;28;20253;-81
2022/07/15 09:16:20;;;;;;;4.88;1.20;;;19.00;1.00;;;;;;10324795;28;20202;-81
2022/07/15 09:21:42;;;;;;;4.30;1.30;;;19.10;1.00;;;;;;10295018;28;20260;-81
2022/07/15 09:27:32;;;;;;;4.10;1.33;;;18.30;99.90;;;;;;10297845;28;20244;-82
2022/07/15 09:38:41;;;;;;;7.38;1.80;;;17.60;99.90;;;;;;10284638;28;20277;-80
2022/07/15 09:44:09;;;;;;;9.45;3.05;;;17.80;99.90;;;;;;10303603;28;20202;-81
2022/07/15 09:49:34;;;;;;;7.75;1.73;;;18.00;99.90;;;;;;10309007;28;20235;-80
2022/07/15 09:54:55;;;;;;;3.28;1.17;;;18.10;67.40;;;;;;10335472;28;20196;-80
2022/07/15 10:00:17;;;;;;;2.55;1.10;;;18.00;1.00;;;;;;10357168;28;20223;-83
2022/07/15 10:05:40;;;;;;;4.90;1.98;;;18.10;99.90;;;;;;10359078;28;20299;-83
2022/07/15 10:11:15;;;;;;;4.82;1.20;;;18.30;99.90;;;;;;10626361;27;20579;-83
2022/07/15 10:16:58;;;;;;;4.22;1.42;;;18.20;1.00;;;;;;10576896;28;20204;-82
2022/07/15 10:22:40;;;;;;;4.13;1.40;;;18.30;1.00;;;;;;10529128;28;20197;-83
2022/07/15 10:28:14;;;;;;;4.88;1.30;;;18.60;1.00;;;;;;10535540;28;20258;-86
2022/07/15 10:33:35;;;;;;;7.47;1.30;;;18.30;1.00;;;;;;10534875;28;20258;-83
2022/07/15 10:39:04;;;;;;;7.63;1.55;;;17.90;1.00;;;;;;10534228;28;20237;-84
2022/07/15 10:44:32;;;;;;;4.85;1.63;;;18.60;1.00;;;;;;10513306;28;20500;-83
2022/07/15 10:49:54;;;;;;;5.63;1.30;;;19.00;1.00;;;;;;10541990;28;20225;-83
2022/07/15 10:55:20;;;;;;;5.95;1.50;;;18.60;1.00;;;;;;10534954;28;20203;-86
2022/07/15 11:00:43;;;;;;;6.65;1.55;;;18.10;1.00;;;;;;10535716;28;20455;-87
2022/07/15 11:06:06;;;;;;;7.60;1.58;;;18.30;1.00;;;;;;10545645;28;20198;-83
2022/07/15 11:11:29;;;;;;;5.85;2.38;;;18.40;1.00;;;;;;10532559;28;20209;-84
2022/07/15 11:16:56;;;;;;;4.47;1.33;;;18.60;99.90;;;;;;10547284;28;20510;-88
2022/07/15 11:22:20;;;;;;;4.82;1.45;;;19.30;99.90;;;;;;10505993;28;20206;-83
2022/07/15 11:27:41;;;;;;;7.55;1.50;;;19.00;16.30;;;;;;10505749;28;20571;-82
2022/07/15 11:33:05;;;;;;;4.43;1.13;;;18.40;1.00;;;;;;10504674;28;20260;-82
2022/07/15 11:38:30;;;;;;;2.92;1.30;;;18.60;99.90;;;;;;10489734;28;20199;-82
2022/07/15 11:44:30;;;;;;;4.10;1.10;;;19.00;1.00;;;;;;10448194;28;20215;-81
2022/07/15 11:49:57;;;;;;;3.10;1.25;;;19.20;1.00;;;;;;10490783;28;20223;-82
2022/07/15 11:55:18;;;;;;;4.35;0.95;;;20.00;99.90;;;;;;10432500;28;20199;-81
2022/07/15 12:00:48;;;;;;;2.47;1.15;;;20.10;99.90;;;;;;10460041;28;20207;-80
2022/07/15 12:06:16;;;;;;;6.90;1.50;;;20.30;99.90;;;;;;10475274;28;20526;-83
2022/07/15 12:11:38;;;;;;;5.90;2.75;;;20.40;99.90;;;;;;10492149;28;20239;-82
2022/07/15 12:17:00;;;;;;;6.07;1.58;;;20.10;1.00;;;;;;10460702;28;20226;-81
2022/07/15 12:22:23;;;;;;;5.65;1.20;;;19.80;99.90;;;;;;10477115;28;20403;-80
2022/07/15 12:27:45;;;;;;;5.97;1.00;;;19.40;1.00;;;;;;10475464;28;20265;-80
2022/07/15 12:33:22;;;;;;;5.28;1.20;;;19.40;99.90;;;;;;10473500;28;20258;-81
2022/07/15 12:38:43;;;;;;;4.60;1.55;;;19.90;1.00;;;;;;10489857;28;20224;-83
2022/07/15 12:44:07;;;;;;;6.10;1.33;;;20.20;1.00;;;;;;10473562;28;20207;-81
2022/07/15 12:49:50;;;;;;;3.78;0.80;;;20.40;99.90;;;;;;10474625;28;20228;-80
2022/07/15 12:55:16;;;;;;;3.08;1.10;;;20.40;99.90;;;;;;10473931;28;20192;-82
2022/07/15 13:00:39;;;;;;;3.13;1.25;;;20.00;99.90;;;;;;10458849;28;20192;-82
2022/07/15 13:06:02;;;;;;;3.85;1.25;;;19.40;46.00;;;;;;10473743;28;20192;-80
2022/07/15 13:11:24;;;;;;;9.00;1.55;;;19.40;99.90;;;;;;10477780;28;20239;-81
2022/07/15 13:16:46;;;;;;;8.15;1.38;;;19.60;1.00;;;;;;10500318;28;20379;-82
2022/07/15 13:22:07;;;;;;;2.72;1.05;;;20.00;1.00;;;;;;10459298;28;20207;-81
2022/07/15 13:27:29;;;;;;;4.22;1.60;;;20.10;64.80;;;;;;10473501;28;20212;-81
2022/07/15 13:32:50;;;;;;;7.78;1.98;;;19.70;99.90;;;;;;10458046;28;20257;-81
2022/07/15 13:38:12;;;;;;;5.05;2.47;;;19.70;1.00;;;;;;10472110;28;20218;-80
2022/07/15 13:43:33;;;;;;;1.98;1.05;;;20.00;1.00;;;;;;10471903;28;20230;-80
2022/07/15 13:48:55;;;;;;;3.35;1.10;;;20.00;41.80;;;;;;10475201;28;20239;-81
2022/07/15 13:54:17;;;;;;;4.00;1.10;;;19.60;1.00;;;;;;10470525;28;20182;-83
2022/07/15 13:59:39;;;;;;;7.13;1.55;;;19.90;51.00;;;;;;10449997;28;20227;-85
2022/07/15 14:05:00;;;;;;;4.00;1.08;;;19.90;1.00;;;;;;10484773;28;20235;-84
2022/07/15 14:10:22;;;;;;;6.32;1.70;;;19.70;1.00;;;;;;10481147;28;20653;-83
2022/07/15 14:15:43;;;;;;;5.57;1.20;;;19.50;1.00;;;;;;10525631;28;20252;-85
2022/07/15 14:21:05;;;;;;;7.15;1.70;;;19.30;1.00;;;;;;10473555;28;20234;-85
2022/07/15 14:26:26;;;;;;;2.90;1.23;;;19.20;1.00;;;;;;10441894;28;20206;-83
2022/07/15 14:31:48;;;;;;;3.25;1.17;;;19.30;1.00;;;;;;10474277;28;20226;-84
2022/07/15 14:37:12;;;;;;;4.20;1.13;;;19.10;1.00;;;;;;10471899;28;20203;-84
2022/07/15 14:42:54;;;;;;;4.38;1.20;;;18.90;1.00;;;;;;10420952;28;20283;-83
2022/07/15 14:48:15;;;;;;;5.50;1.80;;;18.70;99.90;;;;;;10435148;28;20223;-85
2022/07/15 14:53:37;;;;;;;8.88;1.88;;;18.70;1.00;;;;;;10460765;28;20211;-84
2022/07/15 14:58:59;;;;;;;2.75;1.10;;;18.80;99.90;;;;;;10454439;28;20195;-84
2022/07/15 15:04:20;;;;;;;7.40;1.73;;;18.90;99.90;;;;;;10480469;28;20191;-88
2022/07/15 15:09:41;;;;;;;4.25;1.42;;;18.80;99.90;;;;;;10481641;28;20300;-79
2022/07/15 15:15:03;;;;;;;3.30;1.15;;;18.60;99.90;;;;;;10463445;28;20209;-81
2022/07/15 15:20:25;;;;;;;6.93;1.27;;;18.70;1.00;;;;;;10460806;28;20361;-82
2022/07/15 15:31:26;;;;;;;6.28;2.00;;;18.60;1.00;;;;;;10481752;28;20233;-80
2022/07/15 15:36:48;;;;;;;2.90;1.40;;;18.60;99.90;;;;;;10467549;28;20206;-80
2022/07/15 15:42:10;;;;;;;4.32;1.08;;;18.60;99.90;;;;;;10496433;28;20198;-79
2022/07/15 15:47:32;;;;;;;10.82;1.45;;;18.50;99.90;;;;;;10482138;28;20211;-80
2022/07/15 15:52:53;;;;;;;2.78;1.15;;;18.50;99.90;;;;;;10441478;28;20264;-79
2022/07/15 15:58:14;;;;;;;6.65;1.00;;;18.40;28.20;;;;;;10476033;28;20234;-80
2022/07/15 16:03:43;;;;;;;8.82;1.75;;;18.30;1.00;;;;;;10495408;28;20202;-79
2022/07/15 16:09:05;;;;;;;8.77;2.10;;;18.10;1.00;;;;;;10494848;28;20231;-79
2022/07/15 16:14:27;;;;;;;2.28;1.15;;;18.00;16.70;;;;;;10510808;28;20199;-81
2022/07/15 16:19:48;;;;;;;4.05;1.30;;;17.90;99.90;;;;;;10509140;28;20202;-79
2022/07/15 16:25:10;;;;;;;5.18;1.30;;;17.90;99.90;;;;;;10466383;28;20210;-80
2022/07/15 16:30:32;;;;;;;4.97;1.60;;;17.90;99.90;;;;;;10480210;28;20215;-79
2022/07/15 16:35:54;;;;;;;5.32;1.27;;;18.00;99.90;;;;;;10482291;28;20242;-79
2022/07/15 16:41:16;;;;;;;4.15;1.15;;;18.30;26.50;;;;;;10465909;28;20203;-80
2022/07/15 16:46:38;;;;;;;7.47;1.50;;;18.30;1.00;;;;;;10479732;28;20225;-81
2022/07/15 16:52:00;;;;;;;2.95;1.17;;;18.30;36.80;;;;;;10479112;28;20314;-83
2022/07/15 16:57:22;;;;;;;6.53;1.27;;;18.20;1.00;;;;;;10440190;28;20193;-79
2022/07/15 17:02:44;;;;;;;2.90;0.95;;;18.00;1.00;;;;;;10465608;28;20195;-80
2022/07/15 17:08:05;;;;;;;5.55;1.65;;;17.70;1.00;;;;;;10518750;28;20239;-79
2022/07/15 17:13:27;;;;;;;5.53;1.55;;;17.70;1.00;;;;;;10497419;28;20317;-78
2022/07/15 17:18:48;;;;;;;6.35;1.38;;;17.70;56.50;;;;;;10477779;28;20195;-81
2022/07/15 17:24:10;;;;;;;6.60;1.15;;;17.60;99.90;;;;;;10478337;28;20191;-79
2022/07/15 17:29:32;;;;;;;2.80;0.75;;;17.50;1.00;;;;;;10479121;28;20284;-84
2022/07/15 17:34:53;;;;;;;2.72;0.85;;;17.40;99.90;;;;;;10478467;28;20410;-86
2022/07/15 17:40:14;;;;;;;5.15;1.25;;;17.30;1.00;;;;;;10479325;28;20497;-83
2022/07/15 17:45:36;;;;;;;6.45;1.10;;;17.20;99.90;;;;;;10479182;28;20559;-85
2022/07/15 17:50:58;;;;;;;5.80;0.70;;;17.10;99.90;;;;;;10479968;28;20520;-84
2022/07/15 17:56:19;;;;;;;4.50;1.05;;;17.10;99.90;;;;;;10463581;28;20197;-84
2022/07/15 18:01:41;;;;;;;4.28;1.00;;;17.00;99.90;;;;;;10463472;28;20203;-85
2022/07/15 18:07:02;;;;;;;4.00;1.20;;;16.90;1.00;;;;;;10477671;28;20564;-85
2022/07/15 18:12:24;;;;;;;5.10;1.52;;;16.80;1.00;;;;;;10477214;28;20206;-86
2022/07/15 18:17:45;;;;;;;2.00;0.80;;;16.80;1.00;;;;;;10478483;28;20209;-86
2022/07/15 18:23:07;;;;;;;3.97;1.60;;;16.80;1.00;;;;;;10479236;28;20207;-85
2022/07/15 18:28:29;;;;;;;5.22;1.30;;;16.70;99.90;;;;;;10477769;28;20241;-85
2022/07/15 18:33:50;;;;;;;9.23;1.38;;;16.60;99.90;;;;;;10485729;28;20262;-85
2022/07/15 18:39:12;;;;;;;5.35;0.90;;;16.50;1.00;;;;;;10485275;28;20209;-84
2022/07/15 18:44:34;;;;;;;3.55;1.20;;;16.40;1.00;;;;;;10487454;28;20197;-85
2022/07/15 18:49:55;;;;;;;4.03;1.15;;;16.30;99.90;;;;;;10484504;28;20227;-85
2022/07/15 18:55:17;;;;;;;5.93;1.25;;;16.20;1.00;;;;;;10484516;28;20213;-86
2022/07/15 19:00:39;;;;;;;3.35;0.82;;;16.20;34.70;;;;;;10484169;28;20575;-86
2022/07/15 19:06:01;;;;;;;3.90;0.98;;;16.10;99.90;;;;;;10497995;28;20196;-83
2022/07/15 19:11:23;;;;;;;2.92;1.13;;;16.10;1.00;;;;;;10488214;28;20279;-86
2022/07/15 19:16:45;;;;;;;1.90;1.02;;;16.00;1.00;;;;;;10511471;28;20239;-86
2022/07/15 19:22:10;;;;;;;3.03;1.00;;;15.90;99.90;;;;;;10491958;28;20501;-83
2022/07/15 19:27:31;;;;;;;4.47;1.35;;;15.90;99.90;;;;;;10483175;28;20210;-85
2022/07/15 19:32:53;;;;;;;3.42;1.10;;;;;;;;;;10483599;28;20215;-86
2022/07/15 19:38:15;;;;;;;3.80;1.20;;;15.70;11.50;;;;;;10468411;28;20445;-86
2022/07/15 19:43:37;;;;;;;2.60;1.30;;;15.60;99.90;;;;;;10484937;28;20207;-86
2022/07/15 19:48:58;;;;;;;4.43;1.10;;;15.50;1.00;;;;;;10482399;28;20226;-85
2022/07/15 19:54:19;;;;;;;10.43;3.90;;;15.50;1.00;;;;;;10482476;28;20192;-85
2022/07/15 20:05:22;;;;;;;10.40;3.95;;;15.40;1.00;;;;;;10480789;28;20198;-84
2022/07/15 20:10:44;;;;;;;8.10;2.80;;;15.40;1.00;;;;;;10452913;28;20322;-85
2022/07/15 20:16:06;;;;;;;4.80;1.85;;;15.40;99.90;;;;;;10442730;28;20249;-80
2022/07/15 20:21:28;;;;;;;3.78;1.63;;;15.40;28.30;;;;;;10467997;28;20209;-86
2022/07/15 20:26:49;;;;;;;4.85;1.17;;;15.40;23.80;;;;;;10480507;28;20277;-84
2022/07/15 20:32:11;;;;;;;3.83;1.45;;;15.20;99.90;;;;;;10480698;28;20561;-84
2022/07/15 20:37:33;;;;;;;3.22;1.55;;;15.10;99.90;;;;;;10481440;28;20278;-82
2022/07/15 20:42:55;;;;;;;2.10;1.08;;;15.10;99.90;;;;;;10490132;28;20206;-79
2022/07/15 20:48:16;;;;;;;4.18;1.48;;;15.10;99.90;;;;;;10480941;28;20543;-80
2022/07/15 20:53:38;;;;;;;3.03;1.20;;;15.10;99.90;;;;;;10479358;28;20480;-80
2022/07/15 20:58:59;;;;;;;3.95;1.17;;;15.10;99.90;;;;;;10440792;28;20202;-81
2022/07/15 21:04:21;;;;;;;2.22;1.20;;;15.00;99.90;;;;;;10475734;28;20191;-81
2022/07/15 21:09:42;;;;;;;3.22;1.23;;;15.00;99.90;;;;;;10479104;28;20247;-85
2022/07/15 21:15:07;;;;;;;3.72;1.23;;;14.90;1.00;;;;;;10460034;28;20234;-83
2022/07/15 21:20:28;;;;;;;4.22;1.50;;;14.90;1.00;;;;;;10458565;28;20581;-82
2022/07/15 21:31:30;;;;;;;2.75;0.98;;;14.70;1.00;;;;;;10480290;28;20235;-81
2022/07/15 21:36:52;;;;;;;3.67;1.20;;;14.70;1.00;;;;;;10478346;28;20190;-80
2022/07/15 21:42:13;;;;;;;3.67;1.30;;;14.70;1.00;;;;;;10463631;28;20207;-79
2022/07/15 21:47:35;;;;;;;3.88;1.42;;;14.70;1.00;;;;;;10477517;28;20267;-82
2022/07/15 21:52:56;;;;;;;1.52;0.90;;;14.50;1.00;;;;;;10436046;28;20236;-81
2022/07/15 21:58:18;;;;;;;3.35;1.45;;;14.50;1.00;;;;;;10447351;28;20207;-79
2022/07/15 22:03:41;;;;;;;2.00;1.42;;;14.40;1.00;;;;;;10499994;28;20277;-79
2022/07/15 22:09:04;;;;;;;2.97;1.25;;;14.30;1.00;;;;;;10476232;28;20542;-79
2022/07/15 22:14:25;;;;;;;3.28;1.10;;;14.30;1.00;;;;;;10461354;28;20229;-79
2022/07/15 22:19:47;;;;;;;6.25;1.55;;;14.40;1.00;;;;;;10465431;28;20208;-79
2022/07/15 22:25:08;;;;;;;5.57;1.60;;;14.30;1.00;;;;;;10462330;28;20205;-79
2022/07/15 22:30:30;;;;;;;4.00;1.63;;;14.20;1.00;;;;;;10462085;28;20539;-79
2022/07/15 22:35:52;;;;;;;4.25;1.30;;;14.20;1.00;;;;;;10461827;28;20196;-79
2022/07/15 22:41:13;;;;;;;3.03;1.10;;;14.00;1.00;;;;;;10476420;28;20258;-79
2022/07/15 22:46:34;;;;;;;3.15;1.30;;;14.00;1.00;;;;;;10462107;28;20203;-82
2022/07/15 22:51:56;;;;;;;3.88;1.45;;;14.00;1.00;;;;;;10475573;28;20340;-79
2022/07/15 22:57:18;;;;;;;6.15;1.65;;;14.00;1.00;;;;;;10476143;28;20194;-78
2022/07/15 23:02:40;;;;;;;3.75;1.67;;;13.90;1.00;;;;;;10476147;28;20274;-81
2022/07/15 23:08:02;;;;;;;5.07;1.35;;;13.80;1.00;;;;;;10476442;28;20529;-79
2022/07/15 23:13:24;;;;;;;3.20;1.10;;;13.80;1.00;;;;;;10492509;28;20201;-79
2022/07/15 23:18:46;;;;;;;4.97;2.08;;;13.80;1.00;;;;;;10520197;28;20239;-79
2022/07/15 23:24:07;;;;;;;4.30;1.20;;;13.70;1.00;;;;;;10483349;28;20207;-80
2022/07/15 23:29:29;;;;;;;4.55;1.73;;;13.70;1.00;;;;;;10482301;28;20226;-80
2022/07/15 23:34:51;;;;;;;4.57;1.38;;;;;;;;;;10468869;28;20265;-79
2022/07/15 23:40:12;;;;;;;5.50;1.48;;;13.50;1.00;;;;;;10482685;28;20215;-79
2022/07/15 23:45:34;;;;;;;3.20;1.40;;;13.50;1.00;;;;;;10482206;28;20222;-79
2022/07/15 23:50:55;;;;;;;3.65;1.67;;;13.50;1.00;;;;;;10492807;28;20299;-78
2022/07/15 23:56:17;;;;;;;4.13;1.43;;;13.60;1.00;;;;;;10481928;28;20195;-78
